Villa Clarita, Puerto Rico
Current Conditions -  °F | °C
As of 9:53 AM on Saturday 25 Oct 2014 (Local Time) from TJNR Reporting Station
Scattered Clouds Scattered Clouds  
Wind Chill: 89°   Ceiling: Unl
Heat Index: 99°   Visibility: 10mi
Dew Point: 75°   Wind: 10mph
Humidity: 63%   Direction: 160°SSE
Pressure: 29.98"   Gusts: NA
Location:  18.3304°N, 65.6573°W
Report Text: TJNR 251353Z AUTO 16009KT 10SM SCT026 SCT035 32/24 A2998 RMK AO2 SLP153 T03170239 $
Loading
Personal Weather Stations






























Interactive Weather Map New forecast layout! Learn more

10-Day Weather Forecast

Advertisements
Track Severe Weather on mobile